Estación de Recoleta

Ultimos registro cada 15 minutos 74
Estación Fecha / Hora Temperatura Humedad Lluvia Velocidad Dirección Radiación Presion
74 Recoleta 04-05-2026 18:15 19 50,1 0 0,3 145 1,9 967,9
73 Recoleta 04-05-2026 18:00 19,8 45,5 0 0,3 128 6,9 967,6
72 Recoleta 04-05-2026 17:45 20,8 40,8 0 0,7 138 9,4 967,5
71 Recoleta 04-05-2026 17:30 22,2 36 0 0,7 152 13,1 967,3
70 Recoleta 04-05-2026 17:15 24,4 34,1 0 0,3 170 39,4 967,2
69 Recoleta 04-05-2026 17:00 25,5 30,1 0 1 163 70,6 967
68 Recoleta 04-05-2026 16:45 26,3 26,2 0 1 145 120,6 966,8
67 Recoleta 04-05-2026 16:30 26,5 24,6 0 1,3 143 114,4 966,7
66 Recoleta 04-05-2026 16:15 26,7 25,3 0 1,3 139 21,9 966,6
65 Recoleta 04-05-2026 16:00 27,2 24 0 1,3 150 254,4 966,6
64 Recoleta 04-05-2026 15:45 28,1 20,9 0 1 170 298,1 966,7
63 Recoleta 04-05-2026 15:30 27,8 21,3 0 1 160 346,9 966,6
62 Recoleta 04-05-2026 15:15 28,4 19,7 0 1 166 384,4 966,6
61 Recoleta 04-05-2026 15:00 27,7 20,9 0 1,3 143 421,9 966,8
60 Recoleta 04-05-2026 14:45 27,7 22 0 1 166 456,9 966,9
59 Recoleta 04-05-2026 14:30 27,7 21,9 0 1,3 154 491,9 967,2
58 Recoleta 04-05-2026 14:15 28,3 21,3 0 1 160 523,1 967,4
57 Recoleta 04-05-2026 14:00 27,6 21,6 0 1 150 550,6 967,5
56 Recoleta 04-05-2026 13:45 27,1 21,8 0 1,3 149 575,6 967,9
55 Recoleta 04-05-2026 13:30 27,1 22,2 0 1 163 596,9 968
54 Recoleta 04-05-2026 13:15 26,7 23,7 0 1,3 161 614,4 968,3
53 Recoleta 04-05-2026 13:00 26 28,1 0 1,7 146 629,4 968,7
52 Recoleta 04-05-2026 12:45 26 26,3 0 1,3 147 639,4 968,6
51 Recoleta 04-05-2026 12:30 25,3 27,9 0 1,7 140 645,6 968,7
50 Recoleta 04-05-2026 12:15 24,8 28,3 0 1,7 136 646,9 969
49 Recoleta 04-05-2026 12:00 24,5 29,6 0 1 139 644,4 969,1
48 Recoleta 04-05-2026 11:45 23,9 31,3 0 0,7 135 639,4 969,2
47 Recoleta 04-05-2026 11:30 23,3 31,1 0 0,7 131 631,9 969,2
46 Recoleta 04-05-2026 11:15 22,9 31,2 0 0,7 126 615,6 969,4
45 Recoleta 04-05-2026 11:00 22,4 31,1 0 0,7 128 595,6 969,7
44 Recoleta 04-05-2026 10:45 21,7 32,3 0 0,7 147 575,6 969,6
43 Recoleta 04-05-2026 10:30 21,2 34,8 0 0,7 102 549,4 969,5
42 Recoleta 04-05-2026 10:15 21,1 37 0 0 48 520,6 969,6
41 Recoleta 04-05-2026 10:00 21,1 35,9 0 0 48 70,6 969,6
40 Recoleta 04-05-2026 09:45 20,4 36,7 0 0 48 26,9 969,7
39 Recoleta 04-05-2026 09:30 19,5 39,3 0 0 48 25,6 969,8
38 Recoleta 04-05-2026 09:15 18,3 41,9 0 0 48 374,4 969,8
37 Recoleta 04-05-2026 09:00 17,3 45,9 0 0 48 331,9 970,1
36 Recoleta 04-05-2026 08:45 16,2 49,1 0 0 48 286,9 970
35 Recoleta 04-05-2026 08:30 14,3 54,5 0 0 48 238,1 970
34 Recoleta 04-05-2026 08:15 13 67,1 0 0 46 188,1 970
33 Recoleta 04-05-2026 08:00 10,4 76,5 0 0 46 135,6 969,9
32 Recoleta 04-05-2026 07:45 7,6 83 0 0 46 28,1 969,7
31 Recoleta 04-05-2026 07:30 6,7 83 0 0 46 5,6 969,5
30 Recoleta 04-05-2026 07:15 6,5 83,2 0 0 46 1,9 969,5
29 Recoleta 04-05-2026 07:00 6,9 81,2 0 0 46 0,6 969,5
28 Recoleta 04-05-2026 06:45 6,4 83 0 0 46 0,6 969,6
27 Recoleta 04-05-2026 06:30 6,6 82,3 0 0 46 0,6 969,6
26 Recoleta 04-05-2026 06:15 6,8 81,3 0 0 48 0,6 969,4
25 Recoleta 04-05-2026 06:00 7 81,7 0 0 48 0,6 969,3
24 Recoleta 04-05-2026 05:45 6,8 81,4 0 0 48 0,6 969,2
23 Recoleta 04-05-2026 05:30 6,9 80,7 0 0 48 0,6 969,2
22 Recoleta 04-05-2026 05:15 7,2 78,6 0 0 48 0,6 969,2
21 Recoleta 04-05-2026 05:00 7,6 77,5 0 0 48 0,6 969
20 Recoleta 04-05-2026 04:45 7,1 79,8 0 0 48 0,6 968,9
19 Recoleta 04-05-2026 04:30 7,2 80,1 0 0 48 0,6 969,1
18 Recoleta 04-05-2026 04:15 7,2 80,8 0 0 48 0,6 969
17 Recoleta 04-05-2026 04:00 7,3 78,9 0 0 48 0,6 969
16 Recoleta 04-05-2026 03:45 7,6 76,2 0 0 48 0,6 969,1
15 Recoleta 04-05-2026 03:30 7,7 79 0 0 48 0,6 969,1
14 Recoleta 04-05-2026 03:15 8 77,8 0 0 48 0,6 969,1
13 Recoleta 04-05-2026 03:00 7,7 77,8 0 0 48 0,6 969,1
12 Recoleta 04-05-2026 02:45 7,8 76,2 0 0 48 0,6 969,1
11 Recoleta 04-05-2026 02:30 7,8 75,8 0 0 48 0,6 969,3
10 Recoleta 04-05-2026 02:15 7,7 77 0 0 48 0,6 969,5
9 Recoleta 04-05-2026 02:00 7,8 76,2 0 0 48 0,6 969,6
8 Recoleta 04-05-2026 01:45 8 74,8 0 0 48 0,6 969,9
7 Recoleta 04-05-2026 01:30 7,6 76,6 0 0 49 0,6 970
6 Recoleta 04-05-2026 01:15 7,7 75,7 0 0 49 0,6 969,9
5 Recoleta 04-05-2026 01:00 7,6 75,8 0 0 49 0,6 970,1
4 Recoleta 04-05-2026 00:45 7,8 74,8 0 0 49 0,6 970,1
3 Recoleta 04-05-2026 00:30 7,8 74,7 0 0 49 0,6 970,2
2 Recoleta 04-05-2026 00:15 8,1 73,6 0 0 49 0,6 970,2
1 Recoleta 04-05-2026 00:00 8,1 73 0 0 49 0,6 970,4